createdAt,value
2022-10-13T00:01:15.186Z,19.80
2022-10-13T00:03:47.121Z,20.63
2022-10-13T00:06:17.688Z,20.13
2022-10-13T00:08:46.278Z,19.67
2022-10-13T00:11:19.524Z,20.60
2022-10-13T00:13:48.340Z,20.60
2022-10-13T00:16:18.103Z,20.33
2022-10-13T00:18:45.289Z,21.75
2022-10-13T00:21:18.668Z,20.30
2022-10-13T00:23:45.849Z,21.50
2022-10-13T00:26:16.413Z,20.87
2022-10-13T00:28:45.514Z,22.43
2022-10-13T00:31:28.814Z,18.93
2022-10-13T00:33:57.630Z,20.40
2022-10-13T00:36:25.120Z,20.57
2022-10-13T00:38:53.167Z,19.93
2022-10-13T00:41:21.899Z,20.07
2022-10-13T00:44:05.623Z,20.57
2022-10-13T00:46:37.623Z,20.40
2022-10-13T00:49:13.143Z,20.10
2022-10-13T00:51:45.284Z,20.50
2022-10-13T00:54:18.809Z,21.07
2022-10-13T00:56:47.539Z,22.20
2022-10-13T00:59:23.308Z,21.27
2022-10-13T01:01:52.280Z,20.80
2022-10-13T01:04:23.978Z,20.67
2022-10-13T01:06:52.498Z,23.67
2022-10-13T01:09:19.527Z,21.40
2022-10-13T01:12:08.465Z,21.43
2022-10-13T01:15:06.409Z,20.57
2022-10-13T01:18:30.739Z,21.07
2022-10-13T01:21:47.860Z,22.93
2022-10-13T01:24:32.806Z,19.83
2022-10-13T01:27:14.955Z,21.90
2022-10-13T01:30:18.215Z,19.23
2022-10-13T01:33:20.013Z,19.00
2022-10-13T01:36:01.873Z,19.70
2022-10-13T01:39:02.884Z,19.57
2022-10-13T01:41:37.692Z,19.33
2022-10-13T01:44:27.383Z,21.13
2022-10-13T01:46:55.659Z,19.97
2022-10-13T01:49:28.756Z,20.10
2022-10-13T01:52:04.240Z,20.07
2022-10-13T01:54:33.766Z,19.73
2022-10-13T01:57:00.848Z,19.23
2022-10-13T01:59:33.127Z,22.23
2022-10-13T02:02:38.609Z,20.47
2022-10-13T02:05:39.817Z,19.17
2022-10-13T02:08:24.798Z,19.90
2022-10-13T02:11:04.473Z,20.70
2022-10-13T02:13:35.668Z,20.27
2022-10-13T02:16:03.533Z,18.80
2022-10-13T02:18:35.180Z,19.93
2022-10-13T02:21:04.044Z,18.87
2022-10-13T02:23:31.850Z,21.40
2022-10-13T02:26:00.625Z,18.80
2022-10-13T02:28:28.529Z,20.47
2022-10-13T02:30:56.808Z,21.50
2022-10-13T02:33:23.874Z,20.70
2022-10-13T02:35:50.823Z,20.57
2022-10-13T02:38:18.279Z,18.77
2022-10-13T02:40:45.293Z,18.90
2022-10-13T02:43:12.298Z,19.77
2022-10-13T02:45:39.294Z,20.80
2022-10-13T02:48:06.421Z,20.77
2022-10-13T02:50:33.285Z,21.40
2022-10-13T02:53:00.226Z,23.57
2022-10-13T02:55:27.248Z,24.00
2022-10-13T02:57:54.473Z,24.57
2022-10-13T03:00:21.438Z,23.90
2022-10-13T03:02:48.439Z,24.80
2022-10-13T03:05:15.531Z,24.57
2022-10-13T03:07:42.488Z,25.03
2022-10-13T03:10:09.678Z,23.20
2022-10-13T03:12:36.658Z,25.00
2022-10-13T03:15:04.234Z,24.63
2022-10-13T03:17:31.188Z,23.97
2022-10-13T03:19:58.018Z,24.07
2022-10-13T03:22:24.893Z,24.40
2022-10-13T03:24:52.253Z,25.20
2022-10-13T03:27:19.115Z,24.00
2022-10-13T03:29:46.054Z,23.23
2022-10-13T03:32:13.043Z,25.20
2022-10-13T03:34:39.985Z,24.93
2022-10-13T03:37:06.923Z,24.30
2022-10-13T03:39:34.124Z,25.27
2022-10-13T03:42:01.215Z,23.27
2022-10-13T03:44:28.187Z,24.10
2022-10-13T03:46:55.196Z,24.30
2022-10-13T03:49:22.159Z,24.00
2022-10-13T03:51:49.085Z,23.70
2022-10-13T03:54:16.534Z,23.30
2022-10-13T03:56:43.539Z,30.97
2022-10-13T03:59:13.859Z,29.37
2022-10-13T04:01:40.873Z,22.43
2022-10-13T04:04:11.774Z,22.23
2022-10-13T04:06:39.354Z,22.50
2022-10-13T04:09:06.961Z,25.13
2022-10-13T04:11:34.249Z,27.10
2022-10-13T04:14:01.248Z,21.93
2022-10-13T04:16:30.629Z,24.37
2022-10-13T04:19:00.484Z,23.40
2022-10-13T04:21:29.439Z,22.30
2022-10-13T04:23:58.645Z,20.60
2022-10-13T04:26:28.890Z,20.13
2022-10-13T04:28:56.973Z,22.13
2022-10-13T04:31:25.237Z,20.23
2022-10-13T04:33:53.340Z,20.97
2022-10-13T04:36:21.039Z,19.80
2022-10-13T04:38:49.054Z,18.20
2022-10-13T04:41:18.829Z,18.93
2022-10-13T04:43:50.930Z,18.47
2022-10-13T04:46:25.840Z,20.40
2022-10-13T04:48:53.328Z,21.17
2022-10-13T04:51:24.334Z,19.57
2022-10-13T04:54:01.344Z,19.80
2022-10-13T04:56:29.435Z,19.37
2022-10-13T04:58:56.437Z,21.60
2022-10-13T05:01:25.542Z,22.00
2022-10-13T05:04:00.091Z,18.80
2022-10-13T05:06:32.511Z,19.20
2022-10-13T05:08:59.780Z,19.97
2022-10-13T05:11:29.566Z,20.27
2022-10-13T05:13:58.320Z,22.10
2022-10-13T05:16:26.417Z,19.30
2022-10-13T05:18:55.294Z,20.57
2022-10-13T05:21:26.015Z,19.73
2022-10-13T05:23:56.973Z,20.17
2022-10-13T05:26:29.025Z,20.00
2022-10-13T05:29:00.355Z,21.57
2022-10-13T05:31:30.404Z,19.97
2022-10-13T05:33:57.412Z,20.70
2022-10-13T05:36:32.644Z,21.60
2022-10-13T05:39:04.171Z,21.43
2022-10-13T05:41:31.815Z,22.00
2022-10-13T05:44:03.729Z,21.23
2022-10-13T05:46:30.964Z,20.53
2022-10-13T05:48:58.596Z,19.20
2022-10-13T05:51:32.395Z,21.33
2022-10-13T05:54:10.504Z,21.10
2022-10-13T05:56:48.459Z,20.30
2022-10-13T05:59:21.348Z,19.67
2022-10-13T06:01:51.692Z,19.43
2022-10-13T06:04:28.883Z,18.40
2022-10-13T06:06:55.863Z,19.27
2022-10-13T06:09:22.934Z,19.30
2022-10-13T06:11:49.958Z,19.23
2022-10-13T06:14:16.876Z,17.97
2022-10-13T06:16:43.755Z,19.07
2022-10-13T06:19:10.719Z,17.97
2022-10-13T06:21:37.671Z,18.40
2022-10-13T06:24:05.030Z,19.87
2022-10-13T06:26:31.880Z,17.73
2022-10-13T06:28:59.910Z,19.37
2022-10-13T06:31:27.691Z,18.83
2022-10-13T06:33:54.889Z,18.67
2022-10-13T06:36:22.460Z,18.80
2022-10-13T06:38:49.491Z,18.30
2022-10-13T06:41:16.430Z,18.20
2022-10-13T06:43:43.410Z,16.53
2022-10-13T06:46:12.007Z,16.50
2022-10-13T06:48:39.343Z,17.90
2022-10-13T06:51:10.439Z,17.10
2022-10-13T06:53:37.712Z,18.80
2022-10-13T06:56:07.832Z,16.53
2022-10-13T06:58:37.025Z,17.37
2022-10-13T07:01:05.897Z,17.13
2022-10-13T07:03:33.766Z,17.00
2022-10-13T07:06:04.007Z,17.77
2022-10-13T07:08:32.543Z,18.00
2022-10-13T07:10:59.476Z,16.70
2022-10-13T07:13:26.574Z,16.47
2022-10-13T07:15:53.457Z,17.67
2022-10-13T07:18:20.452Z,16.20
2022-10-13T07:20:47.345Z,16.10
2022-10-13T07:23:14.375Z,17.07
2022-10-13T07:25:41.317Z,16.77
2022-10-13T07:28:08.364Z,16.63
2022-10-13T07:30:35.240Z,18.60
2022-10-13T07:33:02.274Z,18.80
2022-10-13T07:35:30.846Z,16.53
2022-10-13T07:37:58.416Z,18.00
2022-10-13T07:40:25.514Z,16.10
2022-10-13T07:42:52.494Z,17.57
2022-10-13T07:45:19.860Z,16.67
2022-10-13T07:47:46.784Z,15.80
2022-10-13T07:50:13.748Z,16.93
2022-10-13T07:52:40.690Z,16.80
2022-10-13T07:55:08.419Z,16.97
2022-10-13T07:57:35.444Z,18.17
2022-10-13T08:00:03.704Z,16.80
2022-10-13T08:02:30.893Z,15.70
2022-10-13T08:04:57.810Z,17.57
2022-10-13T08:07:24.810Z,16.83
2022-10-13T08:09:51.724Z,17.10
2022-10-13T08:12:18.952Z,17.97
2022-10-13T08:14:46.258Z,18.17
2022-10-13T08:17:13.304Z,17.70
2022-10-13T08:19:40.190Z,17.73
2022-10-13T08:22:09.781Z,18.77
2022-10-13T08:24:37.332Z,18.90
2022-10-13T08:27:04.411Z,19.63
2022-10-13T08:29:31.378Z,17.07
2022-10-13T08:31:58.475Z,17.90
2022-10-13T08:34:26.086Z,18.73
2022-10-13T08:36:56.415Z,18.33
2022-10-13T08:39:24.603Z,16.30
2022-10-13T08:41:52.174Z,17.03
2022-10-13T08:45:15.706Z,17.70
2022-10-13T08:47:27.551Z,17.80
2022-10-13T08:50:01.459Z,18.40
2022-10-13T08:52:54.242Z,18.57
2022-10-13T08:55:44.799Z,19.93
2022-10-13T08:58:21.526Z,17.43
2022-10-13T09:00:48.730Z,17.70
2022-10-13T09:03:28.423Z,17.80
2022-10-13T09:06:46.072Z,17.90
2022-10-13T09:09:16.315Z,18.70
2022-10-13T09:11:46.999Z,18.17
2022-10-13T09:14:26.249Z,15.50
2022-10-13T09:16:55.009Z,17.27
2022-10-13T09:19:34.098Z,19.40
2022-10-13T09:22:28.101Z,17.37
2022-10-13T09:25:06.767Z,17.07
2022-10-13T09:27:48.838Z,16.20
2022-10-13T09:30:38.310Z,17.60
2022-10-13T09:33:05.199Z,16.90
2022-10-13T09:35:34.625Z,16.60
2022-10-13T09:38:05.435Z,16.93
2022-10-13T09:40:33.998Z,16.33
2022-10-13T09:43:05.444Z,17.77
2022-10-13T09:45:33.103Z,17.00
2022-10-13T09:48:20.705Z,16.43
2022-10-13T09:50:55.170Z,17.30
2022-10-13T09:53:40.220Z,17.80
2022-10-13T09:56:44.092Z,15.73
2022-10-13T09:59:31.526Z,17.90
2022-10-13T10:02:02.135Z,16.53
2022-10-13T10:04:38.815Z,16.80
2022-10-13T10:07:22.508Z,16.10
2022-10-13T10:09:58.008Z,18.40
2022-10-13T10:12:30.579Z,17.57
2022-10-13T10:14:57.539Z,18.07
2022-10-13T10:17:32.697Z,17.00
2022-10-13T10:21:00.352Z,16.67
2022-10-13T10:23:47.141Z,15.67
2022-10-13T10:26:33.759Z,16.67
2022-10-13T10:29:44.222Z,16.77
2022-10-13T10:32:48.788Z,15.30
2022-10-13T10:35:45.356Z,15.30
2022-10-13T10:38:36.453Z,15.00
2022-10-13T10:41:27.524Z,17.40
2022-10-13T10:44:16.308Z,15.83
2022-10-13T10:46:49.028Z,15.63
2022-10-13T10:49:40.383Z,16.97
2022-10-13T10:52:11.668Z,15.57
2022-10-13T10:54:49.797Z,14.27
2022-10-13T10:58:04.579Z,14.30
2022-10-13T11:00:41.088Z,14.23
2022-10-13T11:03:52.328Z,15.00
2022-10-13T11:06:23.492Z,15.50
2022-10-13T11:08:51.152Z,16.07
2022-10-13T11:11:25.098Z,15.43
2022-10-13T11:14:05.764Z,15.93
2022-10-13T11:16:59.463Z,16.70
2022-10-13T11:19:38.821Z,13.50
2022-10-13T11:22:06.258Z,13.60
2022-10-13T11:24:42.137Z,20.50
2022-10-13T11:27:12.001Z,14.20
2022-10-13T11:30:01.202Z,13.37
2022-10-13T11:32:28.517Z,12.57
2022-10-13T11:35:10.058Z,11.77
2022-10-13T11:38:17.883Z,14.40
2022-10-13T11:40:56.996Z,12.57
2022-10-13T11:43:37.166Z,13.13
2022-10-13T11:46:26.558Z,13.07
2022-10-13T11:49:20.644Z,13.40
2022-10-13T11:52:23.398Z,13.67
2022-10-13T11:55:05.991Z,13.17
2022-10-13T11:57:33.076Z,13.00
2022-10-13T11:59:59.962Z,13.93
2022-10-13T12:02:28.112Z,11.83
2022-10-13T12:05:28.629Z,14.17
2022-10-13T12:08:04.261Z,13.80
2022-10-13T12:10:38.103Z,13.70
2022-10-13T12:13:05.688Z,13.07
2022-10-13T12:15:37.130Z,15.10
2022-10-13T12:18:27.877Z,13.27
2022-10-13T12:21:01.482Z,14.00
2022-10-13T12:23:30.422Z,13.50
2022-10-13T12:25:59.028Z,15.10
2022-10-13T12:28:31.418Z,14.70
2022-10-13T12:31:00.452Z,14.23
2022-10-13T12:33:38.921Z,15.57
2022-10-13T12:36:20.178Z,13.30
2022-10-13T12:38:56.003Z,16.17
2022-10-13T12:41:31.324Z,14.90
2022-10-13T12:44:01.136Z,14.00
2022-10-13T12:46:52.352Z,14.53
2022-10-13T12:49:32.173Z,14.73
2022-10-13T12:52:15.926Z,14.67
2022-10-13T12:54:55.925Z,14.40
2022-10-13T12:57:36.404Z,14.90
2022-10-13T13:00:20.900Z,15.80
2022-10-13T13:03:03.863Z,13.63
2022-10-13T13:05:45.791Z,14.30
2022-10-13T13:08:30.126Z,14.23
2022-10-13T13:11:03.173Z,13.03
2022-10-13T13:13:30.973Z,13.97
2022-10-13T13:16:16.324Z,14.57
2022-10-13T13:18:49.022Z,14.17
2022-10-13T13:21:18.974Z,14.90
2022-10-13T13:23:52.910Z,13.97
2022-10-13T13:26:23.944Z,15.30
2022-10-13T13:28:55.652Z,14.50
2022-10-13T13:31:25.893Z,14.57
2022-10-13T13:33:53.656Z,15.43
2022-10-13T13:36:24.217Z,14.87
2022-10-13T13:38:53.374Z,14.80
2022-10-13T13:41:21.853Z,14.00
2022-10-13T13:43:49.824Z,13.83
2022-10-13T13:46:22.673Z,14.77
2022-10-13T13:48:49.882Z,15.37
2022-10-13T13:51:18.224Z,14.80
2022-10-13T13:53:46.240Z,15.40
2022-10-13T13:56:19.712Z,15.40
2022-10-13T13:58:47.403Z,15.07
2022-10-13T14:01:16.031Z,15.00
2022-10-13T14:03:43.133Z,14.67
2022-10-13T14:06:19.312Z,14.33
2022-10-13T14:08:46.593Z,14.80
2022-10-13T14:11:13.613Z,15.17
2022-10-13T14:13:40.634Z,13.83
2022-10-13T14:16:16.037Z,15.00
2022-10-13T14:18:43.073Z,13.73
2022-10-13T14:21:10.095Z,14.50
2022-10-13T14:23:37.082Z,14.70
2022-10-13T14:26:10.083Z,14.80
2022-10-13T14:28:37.140Z,15.70
2022-10-13T14:31:07.902Z,14.70
2022-10-13T14:33:35.223Z,14.20
2022-10-13T14:36:06.043Z,15.03
2022-10-13T14:38:36.141Z,14.50
2022-10-13T14:41:05.622Z,14.13
2022-10-13T14:43:33.428Z,14.53
2022-10-13T14:46:05.324Z,15.10
2022-10-13T14:48:35.532Z,14.53
2022-10-13T14:51:11.641Z,14.00
2022-10-13T14:53:42.702Z,13.73
2022-10-13T14:56:22.233Z,14.10
2022-10-13T14:58:51.648Z,14.20
2022-10-13T15:01:19.928Z,13.03
2022-10-13T15:03:47.813Z,13.90
2022-10-13T15:06:18.413Z,14.90
2022-10-13T15:08:46.482Z,15.03
2022-10-13T15:11:15.354Z,14.37
2022-10-13T15:13:43.091Z,13.30
2022-10-13T15:16:18.604Z,13.80
2022-10-13T15:18:46.095Z,14.67
2022-10-13T15:21:13.661Z,13.27
2022-10-13T15:23:40.819Z,14.30
2022-10-13T15:26:09.018Z,13.33
2022-10-13T15:28:40.362Z,14.00
2022-10-13T15:31:07.848Z,15.07
2022-10-13T15:33:35.360Z,14.40
2022-10-13T15:36:02.344Z,13.40
2022-10-13T15:38:29.538Z,13.40
2022-10-13T15:41:01.152Z,13.50
2022-10-13T15:43:28.260Z,13.70
2022-10-13T15:46:21.892Z,14.60
2022-10-13T15:48:53.514Z,15.10
2022-10-13T15:51:24.233Z,15.20
2022-10-13T15:53:51.253Z,14.23
2022-10-13T15:56:18.244Z,14.70
2022-10-13T15:58:45.821Z,14.73
2022-10-13T16:01:14.414Z,17.33
2022-10-13T16:03:42.085Z,15.30
2022-10-13T16:06:12.364Z,15.33
2022-10-13T16:08:41.207Z,14.97
2022-10-13T16:11:14.476Z,14.70
2022-10-13T16:13:46.289Z,15.47
2022-10-13T16:16:13.789Z,16.20
2022-10-13T16:18:41.637Z,13.10
2022-10-13T16:21:19.102Z,14.43
2022-10-13T16:23:47.567Z,14.83
2022-10-13T16:26:15.625Z,16.07
2022-10-13T16:28:42.604Z,16.77
2022-10-13T16:31:15.648Z,14.37
2022-10-13T16:33:44.987Z,15.00
2022-10-13T16:36:18.473Z,14.47
2022-10-13T16:38:47.295Z,15.93
2022-10-13T16:41:18.308Z,17.50
2022-10-13T16:43:46.299Z,19.23
2022-10-13T16:46:16.366Z,20.00
2022-10-13T16:48:45.080Z,26.10
2022-10-13T16:51:24.466Z,28.57
2022-10-13T16:53:56.722Z,27.07
2022-10-13T16:56:28.015Z,21.40
2022-10-13T16:58:57.205Z,19.87
2022-10-13T17:01:25.464Z,19.50
2022-10-13T17:03:53.318Z,18.73
2022-10-13T17:06:23.580Z,16.60
2022-10-13T17:08:51.135Z,18.13
2022-10-13T17:11:22.146Z,21.87
2022-10-13T17:13:50.227Z,23.93
2022-10-13T17:16:18.178Z,21.83
2022-10-13T17:18:45.777Z,74.33
2022-10-13T17:21:16.016Z,21.70
2022-10-13T17:23:48.132Z,18.40
2022-10-13T17:26:18.433Z,20.53
2022-10-13T17:28:45.870Z,21.07
2022-10-13T17:31:21.397Z,20.27
2022-10-13T17:33:50.186Z,19.93
2022-10-13T17:36:27.776Z,20.30
2022-10-13T17:38:56.669Z,22.40
2022-10-13T17:41:24.770Z,23.00
2022-10-13T17:43:52.510Z,23.27
2022-10-13T17:46:42.096Z,20.83
2022-10-13T17:49:12.157Z,21.03
2022-10-13T17:51:44.089Z,25.50
2022-10-13T17:54:16.059Z,31.37
2022-10-13T17:56:44.046Z,27.47
2022-10-13T17:59:11.317Z,24.77
2022-10-13T18:01:39.064Z,37.93
2022-10-13T18:04:11.396Z,93.57
2022-10-13T18:06:41.536Z,29.20
2022-10-13T18:09:12.825Z,26.40
2022-10-13T18:11:45.537Z,24.30
2022-10-13T18:14:15.870Z,23.13
2022-10-13T18:16:43.413Z,27.43
2022-10-13T18:19:10.490Z,30.57
2022-10-13T18:21:37.531Z,28.17
2022-10-13T18:24:05.465Z,27.27
2022-10-13T18:26:37.643Z,26.10
2022-10-13T18:29:09.866Z,27.60
2022-10-13T18:31:39.289Z,29.40
2022-10-13T18:34:10.809Z,26.17
2022-10-13T18:36:50.873Z,24.13
2022-10-13T18:39:27.997Z,24.13
2022-10-13T18:41:57.783Z,24.40
2022-10-13T18:44:26.268Z,25.10
2022-10-13T18:46:56.369Z,25.97
2022-10-13T18:49:31.335Z,26.20
2022-10-13T18:52:00.498Z,27.07
2022-10-13T18:54:30.110Z,25.93
2022-10-13T18:56:57.335Z,23.40
2022-10-13T18:59:24.351Z,37.47
2022-10-13T19:01:51.426Z,33.20
2022-10-13T19:04:18.890Z,31.60
2022-10-13T19:06:46.633Z,31.23
2022-10-13T19:09:17.601Z,30.20
2022-10-13T19:11:44.827Z,27.50
2022-10-13T19:14:13.607Z,29.07
2022-10-13T19:16:44.074Z,24.57
2022-10-13T19:19:12.034Z,25.43
2022-10-13T19:21:39.601Z,25.20
2022-10-13T19:24:08.560Z,24.00
2022-10-13T19:26:36.942Z,24.90
2022-10-13T19:29:12.137Z,22.17
2022-10-13T19:31:41.945Z,24.57
2022-10-13T19:34:11.683Z,24.90
2022-10-13T19:36:43.535Z,23.30
2022-10-13T19:39:24.318Z,25.03
2022-10-13T19:41:54.722Z,26.70
2022-10-13T19:44:23.656Z,27.23
2022-10-13T19:46:52.717Z,26.07
2022-10-13T19:49:22.847Z,25.33
2022-10-13T19:51:50.427Z,25.37
2022-10-13T19:54:20.534Z,29.10
2022-10-13T19:56:50.574Z,26.80
2022-10-13T19:59:19.004Z,23.60
2022-10-13T20:01:46.355Z,24.30
2022-10-13T20:04:16.039Z,23.90
2022-10-13T20:06:43.703Z,24.70
2022-10-13T20:09:11.362Z,23.90
2022-10-13T20:11:39.766Z,21.83
2022-10-13T20:14:06.817Z,21.67
2022-10-13T20:16:33.851Z,24.07
2022-10-13T20:19:01.661Z,23.70
2022-10-13T20:21:30.660Z,23.37
2022-10-13T20:23:58.577Z,21.77
2022-10-13T20:26:26.684Z,25.40
2022-10-13T20:28:55.237Z,24.20
2022-10-13T20:31:28.852Z,23.67
2022-10-13T20:33:57.918Z,27.73
2022-10-13T20:36:28.212Z,25.50
2022-10-13T20:38:55.991Z,22.90
2022-10-13T20:41:30.182Z,22.60
2022-10-13T20:44:00.757Z,22.83
2022-10-13T20:46:28.381Z,22.60
2022-10-13T20:49:10.402Z,21.47
2022-10-13T20:51:38.949Z,21.57
2022-10-13T20:54:06.438Z,22.90
2022-10-13T20:56:34.405Z,22.20
2022-10-13T20:59:06.856Z,23.43
2022-10-13T21:01:34.176Z,23.00
2022-10-13T21:04:01.160Z,20.47
2022-10-13T21:06:28.390Z,22.20
2022-10-13T21:08:55.500Z,21.67
2022-10-13T21:11:24.812Z,22.23
2022-10-13T21:13:53.216Z,25.57
2022-10-13T21:16:27.434Z,24.97
2022-10-13T21:18:58.216Z,22.60
2022-10-13T21:21:32.006Z,26.80
2022-10-13T21:24:03.746Z,25.65
2022-10-13T21:26:32.496Z,26.27
2022-10-13T21:29:01.088Z,25.63
2022-10-13T21:31:29.166Z,26.77
2022-10-13T21:33:57.132Z,24.57
2022-10-13T21:36:28.782Z,25.03
2022-10-13T21:39:02.815Z,26.53
2022-10-13T21:41:30.246Z,22.97
2022-10-13T21:43:57.856Z,23.33
2022-10-13T21:46:28.488Z,23.83
2022-10-13T21:49:02.792Z,25.90
2022-10-13T21:51:33.819Z,24.87
2022-10-13T21:54:06.136Z,25.73
2022-10-13T21:56:34.477Z,26.97
2022-10-13T21:59:02.022Z,23.30
2022-10-13T22:01:29.481Z,24.43
2022-10-13T22:03:59.906Z,24.13
2022-10-13T22:06:28.997Z,23.10
2022-10-13T22:08:59.386Z,25.77
2022-10-13T22:11:30.252Z,23.87
2022-10-13T22:13:58.772Z,22.83
2022-10-13T22:16:30.886Z,22.03
2022-10-13T22:18:59.873Z,23.87
2022-10-13T22:21:35.704Z,24.10
2022-10-13T22:24:06.731Z,24.97
2022-10-13T22:26:37.647Z,28.80
2022-10-13T22:29:07.770Z,26.20
2022-10-13T22:31:35.846Z,24.87
2022-10-13T22:34:04.252Z,25.90
2022-10-13T22:36:32.037Z,22.60
2022-10-13T22:39:02.890Z,23.70
2022-10-13T22:41:34.845Z,24.27
2022-10-13T22:44:03.921Z,25.80
2022-10-13T22:46:34.977Z,26.30
2022-10-13T22:49:03.461Z,26.80
2022-10-13T22:51:33.611Z,30.80
2022-10-13T22:54:00.626Z,33.40
2022-10-13T22:56:31.482Z,29.77
2022-10-13T22:59:05.808Z,26.07
2022-10-13T23:01:32.953Z,22.60
2022-10-13T23:04:00.565Z,21.70
2022-10-13T23:06:32.015Z,22.93
2022-10-13T23:09:05.776Z,23.67
2022-10-13T23:11:33.646Z,24.00
2022-10-13T23:14:02.101Z,24.17
2022-10-13T23:16:30.835Z,22.40
2022-10-13T23:18:57.795Z,23.00
2022-10-13T23:21:28.554Z,22.70
2022-10-13T23:23:58.928Z,24.53
2022-10-13T23:26:27.395Z,23.63
2022-10-13T23:28:57.174Z,24.90
2022-10-13T23:31:25.927Z,24.80
2022-10-13T23:33:53.097Z,23.50
2022-10-13T23:36:23.752Z,24.10
2022-10-13T23:39:04.570Z,25.90
2022-10-13T23:41:32.386Z,25.40
2022-10-13T23:43:59.355Z,24.87
2022-10-13T23:46:26.544Z,28.70
2022-10-13T23:48:53.595Z,26.77
2022-10-13T23:51:24.484Z,26.47
2022-10-13T23:53:52.466Z,26.77
2022-10-13T23:56:19.763Z,26.37
2022-10-13T23:58:47.765Z,26.50
